sensor_id;sensor_type;location;lat;lon;timestamp;temperature;humidity
86698;DHT22;77444;41.990;24.088;2024-03-23T00:55:01;-0.37;76.69
86698;DHT22;77444;41.990;24.088;2024-03-23T00:57:27;-0.40;76.83
86698;DHT22;77444;41.990;24.088;2024-03-23T00:59:53;-0.31;76.56
86698;DHT22;77444;41.990;24.088;2024-03-23T01:02:20;-0.47;77.00
86698;DHT22;77444;41.990;24.088;2024-03-23T01:04:46;-0.37;76.94
86698;DHT22;77444;41.990;24.088;2024-03-23T01:07:12;-0.33;76.56
86698;DHT22;77444;41.990;24.088;2024-03-23T01:09:38;-0.38;76.96
86698;DHT22;77444;41.990;24.088;2024-03-23T01:12:05;-0.61;77.67
86698;DHT22;77444;41.990;24.088;2024-03-23T01:14:31;-0.62;77.61
86698;DHT22;77444;41.990;24.088;2024-03-23T01:16:57;-0.56;77.06
86698;DHT22;77444;41.990;24.088;2024-03-23T01:19:23;-0.51;77.17
86698;DHT22;77444;41.990;24.088;2024-03-23T01:21:49;-0.50;77.33
86698;DHT22;77444;41.990;24.088;2024-03-23T01:24:16;-0.48;77.31
86698;DHT22;77444;41.990;24.088;2024-03-23T01:26:42;-0.54;77.57
86698;DHT22;77444;41.990;24.088;2024-03-23T01:29:08;-0.54;77.45
86698;DHT22;77444;41.990;24.088;2024-03-23T01:31:34;-0.53;77.29
86698;DHT22;77444;41.990;24.088;2024-03-23T01:34:01;-0.60;77.81
86698;DHT22;77444;41.990;24.088;2024-03-23T01:36:27;-0.62;77.77
86698;DHT22;77444;41.990;24.088;2024-03-23T01:38:53;-0.62;78.06
86698;DHT22;77444;41.990;24.088;2024-03-23T01:41:19;-0.67;78.02
86698;DHT22;77444;41.990;24.088;2024-03-23T01:43:46;-0.79;78.75
86698;DHT22;77444;41.990;24.088;2024-03-23T01:46:13;-0.82;78.29
86698;DHT22;77444;41.990;24.088;2024-03-23T01:48:39;-0.84;78.05
86698;DHT22;77444;41.990;24.088;2024-03-23T01:51:05;-0.91;78.56
86698;DHT22;77444;41.990;24.088;2024-03-23T01:53:32;-0.82;78.48
86698;DHT22;77444;41.990;24.088;2024-03-23T01:55:58;-0.81;78.47
86698;DHT22;77444;41.990;24.088;2024-03-23T01:58:24;-0.92;78.41
86698;DHT22;77444;41.990;24.088;2024-03-23T02:00:50;-0.87;78.43
86698;DHT22;77444;41.990;24.088;2024-03-23T02:03:27;-0.89;78.47
86698;DHT22;77444;41.990;24.088;2024-03-23T02:05:54;-0.89;78.46
86698;DHT22;77444;41.990;24.088;2024-03-23T02:08:21;-0.81;78.20
86698;DHT22;77444;41.990;24.088;2024-03-23T02:10:51;-0.87;78.41
86698;DHT22;77444;41.990;24.088;2024-03-23T02:13:18;-0.82;78.64
86698;DHT22;77444;41.990;24.088;2024-03-23T02:15:44;-0.99;78.69
86698;DHT22;77444;41.990;24.088;2024-03-23T02:18:10;-0.88;78.81
86698;DHT22;77444;41.990;24.088;2024-03-23T02:20:37;-0.85;78.35
86698;DHT22;77444;41.990;24.088;2024-03-23T02:23:04;-0.92;78.53
86698;DHT22;77444;41.990;24.088;2024-03-23T02:25:32;-0.96;78.47
86698;DHT22;77444;41.990;24.088;2024-03-23T02:27:59;-1.12;79.17
86698;DHT22;77444;41.990;24.088;2024-03-23T02:30:26;-1.09;79.01
86698;DHT22;77444;41.990;24.088;2024-03-23T02:32:52;-1.05;78.85
86698;DHT22;77444;41.990;24.088;2024-03-23T02:35:18;-1.00;78.61
86698;DHT22;77444;41.990;24.088;2024-03-23T02:37:46;-1.03;78.51
86698;DHT22;77444;41.990;24.088;2024-03-23T02:40:15;-1.19;79.34
86698;DHT22;77444;41.990;24.088;2024-03-23T02:42:41;-1.06;79.10
86698;DHT22;77444;41.990;24.088;2024-03-23T02:45:08;-1.26;79.70
86698;DHT22;77444;41.990;24.088;2024-03-23T02:47:34;-1.17;79.49
86698;DHT22;77444;41.990;24.088;2024-03-23T02:50:01;-1.12;79.25
86698;DHT22;77444;41.990;24.088;2024-03-23T02:52:27;-1.19;79.60
86698;DHT22;77444;41.990;24.088;2024-03-23T02:54:53;-1.13;79.59
86698;DHT22;77444;41.990;24.088;2024-03-23T02:57:19;-1.22;79.70
86698;DHT22;77444;41.990;24.088;2024-03-23T02:59:46;-1.13;79.55
86698;DHT22;77444;41.990;24.088;2024-03-23T03:02:13;-1.20;79.72
86698;DHT22;77444;41.990;24.088;2024-03-23T03:04:39;-1.17;79.73
86698;DHT22;77444;41.990;24.088;2024-03-23T03:07:05;-1.22;79.98
86698;DHT22;77444;41.990;24.088;2024-03-23T03:09:32;-1.20;79.87
86698;DHT22;77444;41.990;24.088;2024-03-23T03:11:58;-1.35;80.15
86698;DHT22;77444;41.990;24.088;2024-03-23T03:14:25;-1.26;79.85
86698;DHT22;77444;41.990;24.088;2024-03-23T03:16:51;-1.29;79.88
86698;DHT22;77444;41.990;24.088;2024-03-23T03:19:17;-1.15;79.43
86698;DHT22;77444;41.990;24.088;2024-03-23T03:21:43;-1.38;80.12
86698;DHT22;77444;41.990;24.088;2024-03-23T03:24:09;-1.32;79.76
86698;DHT22;77444;41.990;24.088;2024-03-23T03:26:36;-1.38;79.65
86698;DHT22;77444;41.990;24.088;2024-03-23T03:29:02;-1.38;79.74
86698;DHT22;77444;41.990;24.088;2024-03-23T03:31:29;-1.47;80.28
86698;DHT22;77444;41.990;24.088;2024-03-23T03:33:55;-1.51;80.95
86698;DHT22;77444;41.990;24.088;2024-03-23T03:36:21;-1.51;80.75
86698;DHT22;77444;41.990;24.088;2024-03-23T03:38:47;-1.49;80.69
86698;DHT22;77444;41.990;24.088;2024-03-23T03:41:13;-1.56;80.65
86698;DHT22;77444;41.990;24.088;2024-03-23T03:43:39;-1.47;80.53
86698;DHT22;77444;41.990;24.088;2024-03-23T03:46:06;-1.50;80.20
86698;DHT22;77444;41.990;24.088;2024-03-23T03:48:34;-1.49;80.38
86698;DHT22;77444;41.990;24.088;2024-03-23T03:51:00;-1.49;80.39
86698;DHT22;77444;41.990;24.088;2024-03-23T03:53:26;-1.43;80.34
86698;DHT22;77444;41.990;24.088;2024-03-23T03:55:52;-1.50;80.23
86698;DHT22;77444;41.990;24.088;2024-03-23T03:58:19;-1.56;80.25
86698;DHT22;77444;41.990;24.088;2024-03-23T04:00:45;-1.60;80.51
86698;DHT22;77444;41.990;24.088;2024-03-23T04:03:11;-1.67;80.63
86698;DHT22;77444;41.990;24.088;2024-03-23T04:05:37;-1.59;80.48
86698;DHT22;77444;41.990;24.088;2024-03-23T04:08:04;-1.56;80.32
86698;DHT22;77444;41.990;24.088;2024-03-23T04:10:31;-1.56;80.15
86698;DHT22;77444;41.990;24.088;2024-03-23T04:12:57;-1.57;80.24
86698;DHT22;77444;41.990;24.088;2024-03-23T04:15:23;-1.66;79.86
86698;DHT22;77444;41.990;24.088;2024-03-23T04:17:49;-1.71;80.14
86698;DHT22;77444;41.990;24.088;2024-03-23T04:20:16;-1.71;79.82
86698;DHT22;77444;41.990;24.088;2024-03-23T04:22:43;-1.75;80.47
86698;DHT22;77444;41.990;24.088;2024-03-23T04:25:09;-1.68;80.42
86698;DHT22;77444;41.990;24.088;2024-03-23T04:27:39;-1.75;80.35
86698;DHT22;77444;41.990;24.088;2024-03-23T04:30:08;-1.66;80.58
86698;DHT22;77444;41.990;24.088;2024-03-23T04:32:37;-1.63;80.57
86698;DHT22;77444;41.990;24.088;2024-03-23T04:35:03;-1.67;80.74
86698;DHT22;77444;41.990;24.088;2024-03-23T04:37:36;-1.64;81.01
86698;DHT22;77444;41.990;24.088;2024-03-23T04:40:03;-1.63;80.73
86698;DHT22;77444;41.990;24.088;2024-03-23T04:42:29;-1.50;80.53
86698;DHT22;77444;41.990;24.088;2024-03-23T04:44:56;-1.63;80.89
86698;DHT22;77444;41.990;24.088;2024-03-23T04:47:22;-1.50;80.37
86698;DHT22;77444;41.990;24.088;2024-03-23T04:49:49;-1.46;80.50
86698;DHT22;77444;41.990;24.088;2024-03-23T04:52:18;-1.36;80.20
86698;DHT22;77444;41.990;24.088;2024-03-23T04:54:44;-1.43;80.15
86698;DHT22;77444;41.990;24.088;2024-03-23T04:57:13;-1.23;79.45
86698;DHT22;77444;41.990;24.088;2024-03-23T04:59:39;-1.16;79.11
86698;DHT22;77444;41.990;24.088;2024-03-23T05:02:06;-1.28;79.86
86698;DHT22;77444;41.990;24.088;2024-03-23T05:04:32;-1.15;79.35
86698;DHT22;77444;41.990;24.088;2024-03-23T05:06:58;-1.15;80.05
86698;DHT22;77444;41.990;24.088;2024-03-23T05:09:24;-1.15;80.20
86698;DHT22;77444;41.990;24.088;2024-03-23T05:11:56;-0.92;79.57
86698;DHT22;77444;41.990;24.088;2024-03-23T05:14:22;-0.81;78.95
86698;DHT22;77444;41.990;24.088;2024-03-23T05:16:49;-1.10;80.53
86698;DHT22;77444;41.990;24.088;2024-03-23T05:19:15;-0.91;80.12
86698;DHT22;77444;41.990;24.088;2024-03-23T05:21:41;-0.95;80.50
86698;DHT22;77444;41.990;24.088;2024-03-23T05:24:07;-0.84;80.42
86698;DHT22;77444;41.990;24.088;2024-03-23T05:26:34;-0.78;80.09
86698;DHT22;77444;41.990;24.088;2024-03-23T05:29:02;-0.78;79.87
86698;DHT22;77444;41.990;24.088;2024-03-23T05:31:30;-0.84;79.68
86698;DHT22;77444;41.990;24.088;2024-03-23T05:33:56;-0.79;79.15
86698;DHT22;77444;41.990;24.088;2024-03-23T05:36:22;-0.79;79.65
86698;DHT22;77444;41.990;24.088;2024-03-23T05:38:50;-0.82;79.62
86698;DHT22;77444;41.990;24.088;2024-03-23T05:41:16;-0.82;79.47
86698;DHT22;77444;41.990;24.088;2024-03-23T05:43:43;-0.71;79.28
86698;DHT22;77444;41.990;24.088;2024-03-23T05:46:09;-0.54;78.48
86698;DHT22;77444;41.990;24.088;2024-03-23T05:48:35;-0.56;79.26
86698;DHT22;77444;41.990;24.088;2024-03-23T05:51:02;-0.50;78.37
86698;DHT22;77444;41.990;24.088;2024-03-23T05:53:28;-0.51;78.83
86698;DHT22;77444;41.990;24.088;2024-03-23T05:56:03;-0.34;78.23
86698;DHT22;77444;41.990;24.088;2024-03-23T05:58:33;-0.17;77.99
86698;DHT22;77444;41.990;24.088;2024-03-23T06:01:00;-0.11;77.51
86698;DHT22;77444;41.990;24.088;2024-03-23T06:03:27;0.15;76.53
86698;DHT22;77444;41.990;24.088;2024-03-23T06:05:54;0.28;76.14
86698;DHT22;77444;41.990;24.088;2024-03-23T06:08:21;0.45;75.57
86698;DHT22;77444;41.990;24.088;2024-03-23T06:10:47;0.40;75.34
86698;DHT22;77444;41.990;24.088;2024-03-23T06:13:14;0.54;74.92
86698;DHT22;77444;41.990;24.088;2024-03-23T06:15:40;0.70;74.37
86698;DHT22;77444;41.990;24.088;2024-03-23T06:18:06;0.89;74.27
86698;DHT22;77444;41.990;24.088;2024-03-23T06:20:34;0.85;74.00
86698;DHT22;77444;41.990;24.088;2024-03-23T06:23:01;1.04;73.68
86698;DHT22;77444;41.990;24.088;2024-03-23T06:25:28;1.17;73.15
86698;DHT22;77444;41.990;24.088;2024-03-23T06:27:55;1.20;72.49
86698;DHT22;77444;41.990;24.088;2024-03-23T06:30:22;1.48;71.70
86698;DHT22;77444;41.990;24.088;2024-03-23T06:32:48;1.57;71.62
86698;DHT22;77444;41.990;24.088;2024-03-23T06:35:14;1.74;71.35
86698;DHT22;77444;41.990;24.088;2024-03-23T06:37:40;1.68;71.11
86698;DHT22;77444;41.990;24.088;2024-03-23T06:40:08;1.91;70.73
86698;DHT22;77444;41.990;24.088;2024-03-23T06:42:36;1.92;70.69
86698;DHT22;77444;41.990;24.088;2024-03-23T06:45:02;2.16;70.05
86698;DHT22;77444;41.990;24.088;2024-03-23T06:47:30;2.16;69.95
86698;DHT22;77444;41.990;24.088;2024-03-23T06:49:57;2.29;69.33
86698;DHT22;77444;41.990;24.088;2024-03-23T06:52:23;2.43;69.00
86698;DHT22;77444;41.990;24.088;2024-03-23T06:54:49;2.73;68.84
86698;DHT22;77444;41.990;24.088;2024-03-23T06:57:15;2.84;68.17
86698;DHT22;77444;41.990;24.088;2024-03-23T06:59:41;2.85;68.34
86698;DHT22;77444;41.990;24.088;2024-03-23T07:02:09;2.92;67.52
86698;DHT22;77444;41.990;24.088;2024-03-23T07:04:35;3.04;67.82
86698;DHT22;77444;41.990;24.088;2024-03-23T07:07:02;3.25;67.43
86698;DHT22;77444;41.990;24.088;2024-03-23T07:09:31;3.28;66.78
86698;DHT22;77444;41.990;24.088;2024-03-23T07:11:57;3.43;66.15
86698;DHT22;77444;41.990;24.088;2024-03-23T07:14:24;3.62;65.41
86698;DHT22;77444;41.990;24.088;2024-03-23T07:16:51;3.86;65.02
86698;DHT22;77444;41.990;24.088;2024-03-23T07:19:18;3.96;64.28
86698;DHT22;77444;41.990;24.088;2024-03-23T07:21:45;3.96;64.37
86698;DHT22;77444;41.990;24.088;2024-03-23T07:24:12;4.20;63.30
86698;DHT22;77444;41.990;24.088;2024-03-23T07:26:38;4.31;62.35
86698;DHT22;77444;41.990;24.088;2024-03-23T07:29:07;4.38;61.33
86698;DHT22;77444;41.990;24.088;2024-03-23T07:31:33;4.61;62.19
86698;DHT22;77444;41.990;24.088;2024-03-23T07:33:59;4.83;61.35
86698;DHT22;77444;41.990;24.088;2024-03-23T07:36:25;4.92;60.41
86698;DHT22;77444;41.990;24.088;2024-03-23T07:38:52;5.09;60.33
86698;DHT22;77444;41.990;24.088;2024-03-23T07:41:20;5.15;60.61
86698;DHT22;77444;41.990;24.088;2024-03-23T07:43:47;5.29;60.09
86698;DHT22;77444;41.990;24.088;2024-03-23T07:46:17;5.52;59.34
86698;DHT22;77444;41.990;24.088;2024-03-23T07:48:44;5.65;59.55
86698;DHT22;77444;41.990;24.088;2024-03-23T07:51:22;5.67;59.63
86698;DHT22;77444;41.990;24.088;2024-03-23T07:53:48;5.89;58.97
86698;DHT22;77444;41.990;24.088;2024-03-23T07:56:16;6.01;58.43
86698;DHT22;77444;41.990;24.088;2024-03-23T07:58:42;6.21;56.92
86698;DHT22;77444;41.990;24.088;2024-03-23T08:01:15;6.22;56.97
86698;DHT22;77444;41.990;24.088;2024-03-23T08:03:43;6.49;56.00
86698;DHT22;77444;41.990;24.088;2024-03-23T08:06:14;6.57;55.50
86698;DHT22;77444;41.990;24.088;2024-03-23T08:08:42;6.84;55.08
86698;DHT22;77444;41.990;24.088;2024-03-23T08:11:08;6.95;56.05
86698;DHT22;77444;41.990;24.088;2024-03-23T08:13:36;7.28;55.05
86698;DHT22;77444;41.990;24.088;2024-03-23T08:16:03;7.35;54.36
86698;DHT22;77444;41.990;24.088;2024-03-23T08:18:30;7.41;54.17
86698;DHT22;77444;41.990;24.088;2024-03-23T08:21:04;7.55;53.49
86698;DHT22;77444;41.990;24.088;2024-03-23T08:23:34;7.63;53.18
86698;DHT22;77444;41.990;24.088;2024-03-23T08:26:03;7.76;52.72
86698;DHT22;77444;41.990;24.088;2024-03-23T08:28:30;7.93;52.25
86698;DHT22;77444;41.990;24.088;2024-03-23T08:31:00;8.21;51.32
86698;DHT22;77444;41.990;24.088;2024-03-23T08:33:29;8.45;50.90
86698;DHT22;77444;41.990;24.088;2024-03-23T08:36:01;8.47;50.42
86698;DHT22;77444;41.990;24.088;2024-03-23T08:38:28;8.85;50.78
86698;DHT22;77444;41.990;24.088;2024-03-23T08:41:05;8.95;50.36
86698;DHT22;77444;41.990;24.088;2024-03-23T08:43:35;9.19;49.10
86698;DHT22;77444;41.990;24.088;2024-03-23T08:46:27;9.43;45.50
86698;DHT22;77444;41.990;24.088;2024-03-23T08:48:56;9.43;44.66
86698;DHT22;77444;41.990;24.088;2024-03-23T08:51:23;9.65;45.49
86698;DHT22;77444;41.990;24.088;2024-03-23T08:53:49;9.71;44.47
86698;DHT22;77444;41.990;24.088;2024-03-23T08:56:18;10.16;41.75
86698;DHT22;77444;41.990;24.088;2024-03-23T08:58:45;10.11;41.34
86698;DHT22;77444;41.990;24.088;2024-03-23T09:01:13;9.80;41.47
86698;DHT22;77444;41.990;24.088;2024-03-23T09:03:39;10.02;41.30
86698;DHT22;77444;41.990;24.088;2024-03-23T09:06:13;10.13;40.95
86698;DHT22;77444;41.990;24.088;2024-03-23T09:08:39;10.53;42.12
86698;DHT22;77444;41.990;24.088;2024-03-23T09:11:11;10.56;40.83
86698;DHT22;77444;41.990;24.088;2024-03-23T09:13:39;10.41;40.06
86698;DHT22;77444;41.990;24.088;2024-03-23T09:16:06;10.39;38.35
86698;DHT22;77444;41.990;24.088;2024-03-23T09:18:34;10.52;38.20
86698;DHT22;77444;41.990;24.088;2024-03-23T09:21:04;10.84;35.55
86698;DHT22;77444;41.990;24.088;2024-03-23T09:23:33;11.01;33.32
86698;DHT22;77444;41.990;24.088;2024-03-23T09:26:03;11.23;35.44
86698;DHT22;77444;41.990;24.088;2024-03-23T09:28:30;11.31;33.83
86698;DHT22;77444;41.990;24.088;2024-03-23T09:31:02;11.31;34.17
86698;DHT22;77444;41.990;24.088;2024-03-23T09:33:28;11.25;32.41
86698;DHT22;77444;41.990;24.088;2024-03-23T09:35:55;11.32;33.05
86698;DHT22;77444;41.990;24.088;2024-03-23T09:38:22;11.37;34.13
86698;DHT22;77444;41.990;24.088;2024-03-23T09:40:53;11.78;33.56
86698;DHT22;77444;41.990;24.088;2024-03-23T09:43:20;11.57;34.00
86698;DHT22;77444;41.990;24.088;2024-03-23T09:45:46;11.71;33.66
86698;DHT22;77444;41.990;24.088;2024-03-23T09:48:13;11.69;32.06
86698;DHT22;77444;41.990;24.088;2024-03-23T09:50:41;11.78;32.93
86698;DHT22;77444;41.990;24.088;2024-03-23T09:53:08;11.83;32.03
86698;DHT22;77444;41.990;24.088;2024-03-23T09:55:35;11.96;32.99
86698;DHT22;77444;41.990;24.088;2024-03-23T09:58:02;12.15;33.79
86698;DHT22;77444;41.990;24.088;2024-03-23T10:00:28;12.06;33.59
86698;DHT22;77444;41.990;24.088;2024-03-23T10:03:00;11.71;34.01
86698;DHT22;77444;41.990;24.088;2024-03-23T10:05:32;12.09;34.11
86698;DHT22;77444;41.990;24.088;2024-03-23T10:08:04;12.30;32.86
86698;DHT22;77444;41.990;24.088;2024-03-23T10:10:43;12.41;33.34
86698;DHT22;77444;41.990;24.088;2024-03-23T10:13:10;12.27;33.83
86698;DHT22;77444;41.990;24.088;2024-03-23T10:15:38;12.40;33.79
86698;DHT22;77444;41.990;24.088;2024-03-23T10:18:19;12.51;32.52
86698;DHT22;77444;41.990;24.088;2024-03-23T10:23:33;12.46;32.92
86698;DHT22;77444;41.990;24.088;2024-03-23T10:28:57;13.07;32.06
86698;DHT22;77444;41.990;24.088;2024-03-23T10:31:40;12.78;31.20
86698;DHT22;77444;41.990;24.088;2024-03-23T10:34:07;12.84;30.57
86698;DHT22;77444;41.990;24.088;2024-03-23T10:36:34;12.83;30.65
86698;DHT22;77444;41.990;24.088;2024-03-23T10:39:03;12.95;32.11
86698;DHT22;77444;41.990;24.088;2024-03-23T10:41:35;12.92;31.89
86698;DHT22;77444;41.990;24.088;2024-03-23T10:44:02;12.78;31.51
86698;DHT22;77444;41.990;24.088;2024-03-23T10:46:30;12.64;31.19
86698;DHT22;77444;41.990;24.088;2024-03-23T10:48:56;12.73;31.32
86698;DHT22;77444;41.990;24.088;2024-03-23T10:51:23;12.88;30.91
86698;DHT22;77444;41.990;24.088;2024-03-23T10:53:49;12.95;30.26
86698;DHT22;77444;41.990;24.088;2024-03-23T10:56:16;12.97;29.74
86698;DHT22;77444;41.990;24.088;2024-03-23T10:58:49;13.02;30.50
86698;DHT22;77444;41.990;24.088;2024-03-23T11:01:16;13.32;30.71
86698;DHT22;77444;41.990;24.088;2024-03-23T11:03:46;13.42;29.82
86698;DHT22;77444;41.990;24.088;2024-03-23T11:06:38;13.70;29.37
86698;DHT22;77444;41.990;24.088;2024-03-23T11:17:24;13.58;30.42
86698;DHT22;77444;41.990;24.088;2024-03-23T11:20:01;13.70;29.91
86698;DHT22;77444;41.990;24.088;2024-03-23T11:22:44;13.45;29.81
86698;DHT22;77444;41.990;24.088;2024-03-23T11:25:20;13.60;29.59
86698;DHT22;77444;41.990;24.088;2024-03-23T11:27:48;13.60;29.23
86698;DHT22;77444;41.990;24.088;2024-03-23T11:30:15;13.71;29.46
86698;DHT22;77444;41.990;24.088;2024-03-23T11:32:43;13.62;27.56
86698;DHT22;77444;41.990;24.088;2024-03-23T11:35:10;13.52;26.99
86698;DHT22;77444;41.990;24.088;2024-03-23T11:37:39;13.53;26.80
86698;DHT22;77444;41.990;24.088;2024-03-23T11:40:21;13.86;27.85
86698;DHT22;77444;41.990;24.088;2024-03-23T11:42:49;14.18;28.41
86698;DHT22;77444;41.990;24.088;2024-03-23T11:45:21;13.84;28.23
86698;DHT22;77444;41.990;24.088;2024-03-23T11:47:47;14.00;28.49
86698;DHT22;77444;41.990;24.088;2024-03-23T11:50:20;13.69;28.06
86698;DHT22;77444;41.990;24.088;2024-03-23T11:52:49;14.06;28.31
86698;DHT22;77444;41.990;24.088;2024-03-23T11:55:16;14.13;28.34
86698;DHT22;77444;41.990;24.088;2024-03-23T11:57:42;14.24;25.81
86698;DHT22;77444;41.990;24.088;2024-03-23T12:00:21;14.10;25.60
86698;DHT22;77444;41.990;24.088;2024-03-23T12:02:47;14.41;26.02
86698;DHT22;77444;41.990;24.088;2024-03-23T12:05:17;14.46;24.25
86698;DHT22;77444;41.990;24.088;2024-03-23T12:07:43;14.21;23.82
86698;DHT22;77444;41.990;24.088;2024-03-23T12:10:09;14.51;24.07
86698;DHT22;77444;41.990;24.088;2024-03-23T12:12:36;14.11;23.11
86698;DHT22;77444;41.990;24.088;2024-03-23T12:15:06;14.13;22.03
86698;DHT22;77444;41.990;24.088;2024-03-23T12:17:34;14.09;22.81
86698;DHT22;77444;41.990;24.088;2024-03-23T12:20:04;14.07;23.98
86698;DHT22;77444;41.990;24.088;2024-03-23T12:22:30;14.41;24.17
86698;DHT22;77444;41.990;24.088;2024-03-23T12:24:56;14.62;23.98
86698;DHT22;77444;41.990;24.088;2024-03-23T12:27:23;14.48;23.62
86698;DHT22;77444;41.990;24.088;2024-03-23T12:29:49;14.52;23.49
86698;DHT22;77444;41.990;24.088;2024-03-23T12:32:15;14.54;23.40
86698;DHT22;77444;41.990;24.088;2024-03-23T12:34:42;14.64;23.71
86698;DHT22;77444;41.990;24.088;2024-03-23T12:37:08;14.65;24.81
86698;DHT22;77444;41.990;24.088;2024-03-23T12:39:44;14.54;24.98
86698;DHT22;77444;41.990;24.088;2024-03-23T12:42:10;14.86;24.30
86698;DHT22;77444;41.990;24.088;2024-03-23T12:44:36;14.65;23.85
86698;DHT22;77444;41.990;24.088;2024-03-23T12:47:03;14.67;23.91
86698;DHT22;77444;41.990;24.088;2024-03-23T12:49:29;14.67;23.98
86698;DHT22;77444;41.990;24.088;2024-03-23T12:51:56;14.49;25.25
86698;DHT22;77444;41.990;24.088;2024-03-23T12:54:23;14.79;26.63
86698;DHT22;77444;41.990;24.088;2024-03-23T12:56:50;14.76;26.94
86698;DHT22;77444;41.990;24.088;2024-03-23T12:59:16;14.95;27.34
86698;DHT22;77444;41.990;24.088;2024-03-23T13:01:44;14.93;27.19
86698;DHT22;77444;41.990;24.088;2024-03-23T13:04:10;14.82;27.16
86698;DHT22;77444;41.990;24.088;2024-03-23T13:06:37;14.64;26.92
86698;DHT22;77444;41.990;24.088;2024-03-23T13:09:04;14.91;28.72
86698;DHT22;77444;41.990;24.088;2024-03-23T13:11:31;14.72;29.33
86698;DHT22;77444;41.990;24.088;2024-03-23T13:13:57;14.68;28.99
86698;DHT22;77444;41.990;24.088;2024-03-23T13:16:23;14.71;29.07
86698;DHT22;77444;41.990;24.088;2024-03-23T13:18:50;14.85;28.81
86698;DHT22;77444;41.990;24.088;2024-03-23T13:21:16;14.85;29.08
86698;DHT22;77444;41.990;24.088;2024-03-23T13:23:45;14.95;29.44
86698;DHT22;77444;41.990;24.088;2024-03-23T13:26:13;14.91;28.90
86698;DHT22;77444;41.990;24.088;2024-03-23T13:28:40;14.79;29.01
86698;DHT22;77444;41.990;24.088;2024-03-23T13:31:10;14.95;29.65
86698;DHT22;77444;41.990;24.088;2024-03-23T13:33:41;15.02;29.74
86698;DHT22;77444;41.990;24.088;2024-03-23T13:36:13;15.00;30.09
86698;DHT22;77444;41.990;24.088;2024-03-23T13:38:41;14.60;29.64
86698;DHT22;77444;41.990;24.088;2024-03-23T13:41:08;14.85;30.15
86698;DHT22;77444;41.990;24.088;2024-03-23T13:43:38;14.86;29.63
86698;DHT22;77444;41.990;24.088;2024-03-23T13:46:04;14.72;29.40
86698;DHT22;77444;41.990;24.088;2024-03-23T13:48:30;14.71;29.95
86698;DHT22;77444;41.990;24.088;2024-03-23T13:51:00;14.72;29.27
86698;DHT22;77444;41.990;24.088;2024-03-23T13:53:27;14.88;29.44
86698;DHT22;77444;41.990;24.088;2024-03-23T13:55:53;14.64;28.63
86698;DHT22;77444;41.990;24.088;2024-03-23T13:58:20;14.68;28.64
86698;DHT22;77444;41.990;24.088;2024-03-23T14:00:49;14.79;28.70
86698;DHT22;77444;41.990;24.088;2024-03-23T14:03:15;14.72;29.34
86698;DHT22;77444;41.990;24.088;2024-03-23T14:05:42;14.62;28.57
86698;DHT22;77444;41.990;24.088;2024-03-23T14:08:08;14.60;28.81
86698;DHT22;77444;41.990;24.088;2024-03-23T14:10:35;14.58;28.72
86698;DHT22;77444;41.990;24.088;2024-03-23T14:13:04;14.65;28.66
86698;DHT22;77444;41.990;24.088;2024-03-23T14:15:30;14.55;28.66
86698;DHT22;77444;41.990;24.088;2024-03-23T14:17:57;14.58;28.77
86698;DHT22;77444;41.990;24.088;2024-03-23T14:20:24;14.49;28.67
86698;DHT22;77444;41.990;24.088;2024-03-23T14:22:50;14.48;28.63
86698;DHT22;77444;41.990;24.088;2024-03-23T14:25:19;14.58;28.61
86698;DHT22;77444;41.990;24.088;2024-03-23T14:27:47;14.60;28.37
86698;DHT22;77444;41.990;24.088;2024-03-23T14:30:14;14.60;28.46
86698;DHT22;77444;41.990;24.088;2024-03-23T14:32:40;14.68;28.64
86698;DHT22;77444;41.990;24.088;2024-03-23T14:35:08;14.67;28.87
86698;DHT22;77444;41.990;24.088;2024-03-23T14:37:37;14.57;28.22
86698;DHT22;77444;41.990;24.088;2024-03-23T14:40:04;14.60;28.82
86698;DHT22;77444;41.990;24.088;2024-03-23T14:42:30;14.79;28.50
86698;DHT22;77444;41.990;24.088;2024-03-23T14:44:59;15.83;27.00
86698;DHT22;77444;41.990;24.088;2024-03-23T14:47:25;18.53;23.50
86698;DHT22;77444;41.990;24.088;2024-03-23T14:49:54;16.91;25.66
86698;DHT22;77444;41.990;24.088;2024-03-23T14:52:26;15.98;27.37
86698;DHT22;77444;41.990;24.088;2024-03-23T14:54:52;18.09;24.27
86698;DHT22;77444;41.990;24.088;2024-03-23T14:57:23;19.69;22.55
86698;DHT22;77444;41.990;24.088;2024-03-23T14:59:52;19.70;22.34
86698;DHT22;77444;41.990;24.088;2024-03-23T15:02:18;20.99;21.23
86698;DHT22;77444;41.990;24.088;2024-03-23T15:04:46;20.98;20.68
86698;DHT22;77444;41.990;24.088;2024-03-23T15:07:12;21.29;20.61
86698;DHT22;77444;41.990;24.088;2024-03-23T15:09:53;21.44;20.28
86698;DHT22;77444;41.990;24.088;2024-03-23T15:12:22;21.64;20.32
86698;DHT22;77444;41.990;24.088;2024-03-23T15:14:49;20.69;21.36
86698;DHT22;77444;41.990;24.088;2024-03-23T15:17:18;21.05;20.88
86698;DHT22;77444;41.990;24.088;2024-03-23T15:19:44;20.89;20.75
86698;DHT22;77444;41.990;24.088;2024-03-23T15:22:10;21.50;20.26
86698;DHT22;77444;41.990;24.088;2024-03-23T15:24:37;21.16;20.69
86698;DHT22;77444;41.990;24.088;2024-03-23T15:27:10;19.80;21.55
86698;DHT22;77444;41.990;24.088;2024-03-23T15:29:37;19.38;22.82
86698;DHT22;77444;41.990;24.088;2024-03-23T15:32:06;19.84;22.51
86698;DHT22;77444;41.990;24.088;2024-03-23T15:34:32;18.91;23.12
86698;DHT22;77444;41.990;24.088;2024-03-23T15:36:58;19.86;22.47
86698;DHT22;77444;41.990;24.088;2024-03-23T15:39:24;20.14;21.72
86698;DHT22;77444;41.990;24.088;2024-03-23T15:41:51;19.90;22.14
86698;DHT22;77444;41.990;24.088;2024-03-23T15:44:17;19.15;23.32
86698;DHT22;77444;41.990;24.088;2024-03-23T15:46:43;19.29;23.07
86698;DHT22;77444;41.990;24.088;2024-03-23T15:49:10;18.14;24.13
86698;DHT22;77444;41.990;24.088;2024-03-23T15:51:36;16.02;27.05
86698;DHT22;77444;41.990;24.088;2024-03-23T15:54:03;15.24;28.47
86698;DHT22;77444;41.990;24.088;2024-03-23T15:56:29;14.58;29.22
86698;DHT22;77444;41.990;24.088;2024-03-23T15:58:56;14.32;29.73
86698;DHT22;77444;41.990;24.088;2024-03-23T16:01:26;13.84;30.72
86698;DHT22;77444;41.990;24.088;2024-03-23T16:03:53;13.50;31.48
86698;DHT22;77444;41.990;24.088;2024-03-23T16:06:19;13.28;31.91
86698;DHT22;77444;41.990;24.088;2024-03-23T16:08:48;13.19;32.60
86698;DHT22;77444;41.990;24.088;2024-03-23T16:11:14;12.97;33.54
86698;DHT22;77444;41.990;24.088;2024-03-23T16:13:43;12.64;34.71
86698;DHT22;77444;41.990;24.088;2024-03-23T16:16:10;12.50;35.35
86698;DHT22;77444;41.990;24.088;2024-03-23T16:18:37;12.23;35.88
86698;DHT22;77444;41.990;24.088;2024-03-23T16:21:07;12.12;36.24
86698;DHT22;77444;41.990;24.088;2024-03-23T16:23:36;11.82;37.37
86698;DHT22;77444;41.990;24.088;2024-03-23T16:26:11;11.68;37.75
86698;DHT22;77444;41.990;24.088;2024-03-23T16:28:38;11.48;38.25
86698;DHT22;77444;41.990;24.088;2024-03-23T16:31:08;11.28;38.93